sensor_id;sensor_type;location;lat;lon;timestamp;P1;durP1;ratioP1;P2;durP2;ratioP2
69625;SDS011;56847;51.984;5.088;2024-01-11T00:02:01;20.08;;;8.60;;
69625;SDS011;56847;51.984;5.088;2024-01-11T00:04:29;17.42;;;8.98;;
69625;SDS011;56847;51.984;5.088;2024-01-11T00:06:57;21.73;;;9.53;;
69625;SDS011;56847;51.984;5.088;2024-01-11T00:09:24;16.88;;;8.48;;
69625;SDS011;56847;51.984;5.088;2024-01-11T00:11:52;20.38;;;9.25;;
69625;SDS011;56847;51.984;5.088;2024-01-11T00:14:19;23.42;;;9.35;;
69625;SDS011;56847;51.984;5.088;2024-01-11T00:16:46;22.65;;;9.90;;
69625;SDS011;56847;51.984;5.088;2024-01-11T00:19:13;18.93;;;8.90;;
69625;SDS011;56847;51.984;5.088;2024-01-11T00:21:40;24.35;;;10.00;;
69625;SDS011;56847;51.984;5.088;2024-01-11T00:24:07;19.20;;;8.95;;
69625;SDS011;56847;51.984;5.088;2024-01-11T00:26:34;20.63;;;9.70;;
69625;SDS011;56847;51.984;5.088;2024-01-11T00:29:03;21.42;;;9.82;;
69625;SDS011;56847;51.984;5.088;2024-01-11T00:31:30;20.30;;;9.77;;
69625;SDS011;56847;51.984;5.088;2024-01-11T00:34:00;17.95;;;9.27;;
69625;SDS011;56847;51.984;5.088;2024-01-11T00:36:27;17.50;;;9.60;;
69625;SDS011;56847;51.984;5.088;2024-01-11T00:38:54;23.15;;;10.27;;
69625;SDS011;56847;51.984;5.088;2024-01-11T00:41:21;16.05;;;9.27;;
69625;SDS011;56847;51.984;5.088;2024-01-11T00:43:51;18.33;;;9.67;;
69625;SDS011;56847;51.984;5.088;2024-01-11T00:46:17;21.00;;;9.77;;
69625;SDS011;56847;51.984;5.088;2024-01-11T00:48:44;19.60;;;9.80;;
69625;SDS011;56847;51.984;5.088;2024-01-11T00:51:12;21.40;;;9.43;;
69625;SDS011;56847;51.984;5.088;2024-01-11T00:53:38;21.27;;;10.20;;
69625;SDS011;56847;51.984;5.088;2024-01-11T00:56:14;24.20;;;9.47;;
69625;SDS011;56847;51.984;5.088;2024-01-11T00:58:45;17.48;;;9.15;;
69625;SDS011;56847;51.984;5.088;2024-01-11T01:01:12;16.38;;;9.75;;
69625;SDS011;56847;51.984;5.088;2024-01-11T01:03:39;19.73;;;8.75;;
69625;SDS011;56847;51.984;5.088;2024-01-11T01:06:06;18.20;;;9.48;;
69625;SDS011;56847;51.984;5.088;2024-01-11T01:08:33;20.03;;;9.37;;
69625;SDS011;56847;51.984;5.088;2024-01-11T01:11:03;17.55;;;9.32;;
69625;SDS011;56847;51.984;5.088;2024-01-11T01:13:31;18.88;;;10.32;;
69625;SDS011;56847;51.984;5.088;2024-01-11T01:15:57;17.15;;;9.13;;
69625;SDS011;56847;51.984;5.088;2024-01-11T01:18:24;21.80;;;9.75;;
69625;SDS011;56847;51.984;5.088;2024-01-11T01:20:51;21.83;;;9.13;;
69625;SDS011;56847;51.984;5.088;2024-01-11T01:23:18;21.15;;;10.13;;
69625;SDS011;56847;51.984;5.088;2024-01-11T01:25:45;19.08;;;10.18;;
69625;SDS011;56847;51.984;5.088;2024-01-11T01:28:12;19.25;;;10.23;;
69625;SDS011;56847;51.984;5.088;2024-01-11T01:30:39;19.80;;;9.63;;
69625;SDS011;56847;51.984;5.088;2024-01-11T01:33:06;19.23;;;9.33;;
69625;SDS011;56847;51.984;5.088;2024-01-11T01:35:34;20.65;;;9.60;;
69625;SDS011;56847;51.984;5.088;2024-01-11T01:38:02;23.90;;;10.77;;
69625;SDS011;56847;51.984;5.088;2024-01-11T01:40:32;18.77;;;9.98;;
69625;SDS011;56847;51.984;5.088;2024-01-11T01:42:59;18.63;;;9.68;;
69625;SDS011;56847;51.984;5.088;2024-01-11T01:45:32;21.97;;;9.17;;
69625;SDS011;56847;51.984;5.088;2024-01-11T01:47:59;22.52;;;9.98;;
69625;SDS011;56847;51.984;5.088;2024-01-11T01:50:26;18.30;;;9.32;;
69625;SDS011;56847;51.984;5.088;2024-01-11T01:52:54;19.00;;;10.02;;
69625;SDS011;56847;51.984;5.088;2024-01-11T01:55:22;22.13;;;9.90;;
69625;SDS011;56847;51.984;5.088;2024-01-11T01:57:50;20.43;;;10.33;;
69625;SDS011;56847;51.984;5.088;2024-01-11T02:00:18;19.88;;;9.10;;
69625;SDS011;56847;51.984;5.088;2024-01-11T02:02:46;18.15;;;9.65;;
69625;SDS011;56847;51.984;5.088;2024-01-11T02:05:16;20.30;;;9.82;;
69625;SDS011;56847;51.984;5.088;2024-01-11T02:07:44;22.58;;;9.40;;
69625;SDS011;56847;51.984;5.088;2024-01-11T02:10:11;18.90;;;10.03;;
69625;SDS011;56847;51.984;5.088;2024-01-11T02:12:39;24.90;;;10.60;;
69625;SDS011;56847;51.984;5.088;2024-01-11T02:15:07;19.98;;;9.90;;
69625;SDS011;56847;51.984;5.088;2024-01-11T02:17:34;20.25;;;9.35;;
69625;SDS011;56847;51.984;5.088;2024-01-11T02:20:02;22.05;;;10.00;;
69625;SDS011;56847;51.984;5.088;2024-01-11T02:22:38;17.60;;;8.77;;
69625;SDS011;56847;51.984;5.088;2024-01-11T02:25:07;24.73;;;10.65;;
69625;SDS011;56847;51.984;5.088;2024-01-11T02:27:47;20.40;;;9.30;;
69625;SDS011;56847;51.984;5.088;2024-01-11T02:30:15;24.13;;;9.98;;
69625;SDS011;56847;51.984;5.088;2024-01-11T02:32:46;17.33;;;9.25;;
69625;SDS011;56847;51.984;5.088;2024-01-11T02:35:15;21.43;;;9.93;;
69625;SDS011;56847;51.984;5.088;2024-01-11T02:37:43;25.90;;;9.90;;
69625;SDS011;56847;51.984;5.088;2024-01-11T02:40:10;22.08;;;10.95;;
69625;SDS011;56847;51.984;5.088;2024-01-11T02:42:40;19.63;;;9.73;;
69625;SDS011;56847;51.984;5.088;2024-01-11T02:45:07;27.98;;;11.20;;
69625;SDS011;56847;51.984;5.088;2024-01-11T02:47:34;18.13;;;10.17;;
69625;SDS011;56847;51.984;5.088;2024-01-11T02:50:01;25.52;;;11.55;;
69625;SDS011;56847;51.984;5.088;2024-01-11T02:52:28;21.83;;;10.80;;
69625;SDS011;56847;51.984;5.088;2024-01-11T02:54:55;24.15;;;10.48;;
69625;SDS011;56847;51.984;5.088;2024-01-11T02:57:22;24.90;;;10.55;;
69625;SDS011;56847;51.984;5.088;2024-01-11T02:59:49;24.97;;;12.03;;
69625;SDS011;56847;51.984;5.088;2024-01-11T03:02:17;17.98;;;10.23;;
69625;SDS011;56847;51.984;5.088;2024-01-11T03:04:44;20.02;;;9.63;;
69625;SDS011;56847;51.984;5.088;2024-01-11T03:07:11;22.92;;;9.93;;
69625;SDS011;56847;51.984;5.088;2024-01-11T03:09:38;26.35;;;11.80;;
69625;SDS011;56847;51.984;5.088;2024-01-11T03:12:05;22.07;;;9.80;;
69625;SDS011;56847;51.984;5.088;2024-01-11T03:14:32;14.93;;;8.93;;
69625;SDS011;56847;51.984;5.088;2024-01-11T03:17:00;24.73;;;11.20;;
69625;SDS011;56847;51.984;5.088;2024-01-11T03:19:27;22.92;;;11.43;;
69625;SDS011;56847;51.984;5.088;2024-01-11T03:21:54;22.60;;;10.98;;
69625;SDS011;56847;51.984;5.088;2024-01-11T03:24:21;22.43;;;9.93;;
69625;SDS011;56847;51.984;5.088;2024-01-11T03:26:48;21.85;;;11.70;;
69625;SDS011;56847;51.984;5.088;2024-01-11T03:29:15;21.80;;;11.00;;
69625;SDS011;56847;51.984;5.088;2024-01-11T03:31:43;20.80;;;10.77;;
69625;SDS011;56847;51.984;5.088;2024-01-11T03:34:11;24.63;;;11.48;;
69625;SDS011;56847;51.984;5.088;2024-01-11T03:36:39;24.70;;;11.53;;
69625;SDS011;56847;51.984;5.088;2024-01-11T03:39:06;22.92;;;11.50;;
69625;SDS011;56847;51.984;5.088;2024-01-11T03:41:33;19.20;;;10.93;;
69625;SDS011;56847;51.984;5.088;2024-01-11T03:44:00;23.95;;;11.88;;
69625;SDS011;56847;51.984;5.088;2024-01-11T03:46:27;26.10;;;12.02;;
69625;SDS011;56847;51.984;5.088;2024-01-11T03:48:54;24.13;;;11.47;;
69625;SDS011;56847;51.984;5.088;2024-01-11T03:51:23;24.98;;;11.70;;
69625;SDS011;56847;51.984;5.088;2024-01-11T03:53:50;28.17;;;12.75;;
69625;SDS011;56847;51.984;5.088;2024-01-11T03:56:18;28.67;;;12.75;;
69625;SDS011;56847;51.984;5.088;2024-01-11T03:58:45;24.03;;;12.43;;
69625;SDS011;56847;51.984;5.088;2024-01-11T04:01:12;26.17;;;13.17;;
69625;SDS011;56847;51.984;5.088;2024-01-11T04:03:41;25.63;;;12.45;;
69625;SDS011;56847;51.984;5.088;2024-01-11T04:06:08;27.77;;;14.05;;
69625;SDS011;56847;51.984;5.088;2024-01-11T04:08:35;27.60;;;13.25;;
69625;SDS011;56847;51.984;5.088;2024-01-11T04:11:03;31.58;;;14.38;;
69625;SDS011;56847;51.984;5.088;2024-01-11T04:13:33;27.27;;;13.43;;
69625;SDS011;56847;51.984;5.088;2024-01-11T04:16:03;28.33;;;13.02;;
69625;SDS011;56847;51.984;5.088;2024-01-11T04:18:32;26.88;;;12.68;;
69625;SDS011;56847;51.984;5.088;2024-01-11T04:21:01;26.13;;;13.30;;
69625;SDS011;56847;51.984;5.088;2024-01-11T04:23:28;29.77;;;13.98;;
69625;SDS011;56847;51.984;5.088;2024-01-11T04:25:56;29.17;;;13.33;;
69625;SDS011;56847;51.984;5.088;2024-01-11T04:28:23;26.30;;;13.32;;
69625;SDS011;56847;51.984;5.088;2024-01-11T04:30:50;32.58;;;15.35;;
69625;SDS011;56847;51.984;5.088;2024-01-11T04:33:17;28.45;;;13.30;;
69625;SDS011;56847;51.984;5.088;2024-01-11T04:35:44;32.42;;;15.65;;
69625;SDS011;56847;51.984;5.088;2024-01-11T04:38:15;30.03;;;14.70;;
69625;SDS011;56847;51.984;5.088;2024-01-11T04:40:42;34.67;;;15.75;;
69625;SDS011;56847;51.984;5.088;2024-01-11T04:43:09;34.65;;;16.20;;
69625;SDS011;56847;51.984;5.088;2024-01-11T04:45:37;31.90;;;16.48;;
69625;SDS011;56847;51.984;5.088;2024-01-11T04:48:04;32.85;;;15.48;;
69625;SDS011;56847;51.984;5.088;2024-01-11T04:50:31;29.10;;;13.90;;
69625;SDS011;56847;51.984;5.088;2024-01-11T04:52:58;32.92;;;17.00;;
69625;SDS011;56847;51.984;5.088;2024-01-11T04:55:25;35.22;;;17.13;;
69625;SDS011;56847;51.984;5.088;2024-01-11T04:57:52;35.33;;;16.45;;
69625;SDS011;56847;51.984;5.088;2024-01-11T05:00:19;36.95;;;18.42;;
69625;SDS011;56847;51.984;5.088;2024-01-11T05:02:46;35.53;;;15.83;;
69625;SDS011;56847;51.984;5.088;2024-01-11T05:05:13;33.45;;;16.95;;
69625;SDS011;56847;51.984;5.088;2024-01-11T05:07:40;34.05;;;16.92;;
69625;SDS011;56847;51.984;5.088;2024-01-11T05:10:07;36.70;;;17.15;;
69625;SDS011;56847;51.984;5.088;2024-01-11T05:12:34;39.50;;;20.27;;
69625;SDS011;56847;51.984;5.088;2024-01-11T05:15:03;39.13;;;18.63;;
69625;SDS011;56847;51.984;5.088;2024-01-11T05:17:32;44.50;;;19.92;;
69625;SDS011;56847;51.984;5.088;2024-01-11T05:19:59;47.10;;;20.60;;
69625;SDS011;56847;51.984;5.088;2024-01-11T05:22:26;42.40;;;18.95;;
69625;SDS011;56847;51.984;5.088;2024-01-11T05:24:53;43.85;;;20.38;;
69625;SDS011;56847;51.984;5.088;2024-01-11T05:27:20;37.37;;;18.83;;
69625;SDS011;56847;51.984;5.088;2024-01-11T05:29:47;38.92;;;17.48;;
69625;SDS011;56847;51.984;5.088;2024-01-11T05:32:16;39.20;;;18.48;;
69625;SDS011;56847;51.984;5.088;2024-01-11T05:34:43;39.22;;;19.05;;
69625;SDS011;56847;51.984;5.088;2024-01-11T05:37:10;41.25;;;19.63;;
69625;SDS011;56847;51.984;5.088;2024-01-11T05:39:37;42.90;;;19.37;;
69625;SDS011;56847;51.984;5.088;2024-01-11T05:42:04;42.53;;;18.63;;
69625;SDS011;56847;51.984;5.088;2024-01-11T05:44:32;43.80;;;20.55;;
69625;SDS011;56847;51.984;5.088;2024-01-11T05:46:59;45.92;;;19.65;;
69625;SDS011;56847;51.984;5.088;2024-01-11T05:49:26;41.53;;;20.30;;
69625;SDS011;56847;51.984;5.088;2024-01-11T05:51:53;45.30;;;20.13;;
69625;SDS011;56847;51.984;5.088;2024-01-11T05:54:20;41.67;;;20.23;;
69625;SDS011;56847;51.984;5.088;2024-01-11T05:56:47;41.42;;;20.98;;
69625;SDS011;56847;51.984;5.088;2024-01-11T05:59:14;46.90;;;20.95;;
69625;SDS011;56847;51.984;5.088;2024-01-11T06:01:41;41.85;;;20.70;;
69625;SDS011;56847;51.984;5.088;2024-01-11T06:04:12;44.00;;;18.53;;
69625;SDS011;56847;51.984;5.088;2024-01-11T06:06:40;33.35;;;16.85;;
69625;SDS011;56847;51.984;5.088;2024-01-11T06:09:07;44.15;;;20.42;;
69625;SDS011;56847;51.984;5.088;2024-01-11T06:11:34;40.75;;;20.70;;
69625;SDS011;56847;51.984;5.088;2024-01-11T06:14:01;42.97;;;20.73;;
69625;SDS011;56847;51.984;5.088;2024-01-11T06:16:29;40.93;;;18.77;;
69625;SDS011;56847;51.984;5.088;2024-01-11T06:18:57;40.05;;;18.90;;
69625;SDS011;56847;51.984;5.088;2024-01-11T06:21:26;44.33;;;19.52;;
69625;SDS011;56847;51.984;5.088;2024-01-11T06:23:53;45.00;;;20.75;;
69625;SDS011;56847;51.984;5.088;2024-01-11T06:26:20;42.63;;;20.33;;
69625;SDS011;56847;51.984;5.088;2024-01-11T06:28:49;45.77;;;20.97;;
69625;SDS011;56847;51.984;5.088;2024-01-11T06:31:16;38.30;;;18.70;;
69625;SDS011;56847;51.984;5.088;2024-01-11T06:33:44;46.80;;;21.83;;
69625;SDS011;56847;51.984;5.088;2024-01-11T06:36:16;42.67;;;18.67;;
69625;SDS011;56847;51.984;5.088;2024-01-11T06:38:43;41.25;;;19.20;;
69625;SDS011;56847;51.984;5.088;2024-01-11T06:41:10;43.90;;;19.17;;
69625;SDS011;56847;51.984;5.088;2024-01-11T06:43:37;49.83;;;21.23;;
69625;SDS011;56847;51.984;5.088;2024-01-11T06:46:04;41.47;;;20.50;;
69625;SDS011;56847;51.984;5.088;2024-01-11T06:48:32;34.05;;;16.95;;
69625;SDS011;56847;51.984;5.088;2024-01-11T06:51:00;38.65;;;18.55;;
69625;SDS011;56847;51.984;5.088;2024-01-11T06:53:28;41.77;;;19.97;;
69625;SDS011;56847;51.984;5.088;2024-01-11T06:55:55;45.33;;;20.42;;
69625;SDS011;56847;51.984;5.088;2024-01-11T06:58:22;49.65;;;20.20;;
69625;SDS011;56847;51.984;5.088;2024-01-11T07:00:49;46.05;;;20.88;;
69625;SDS011;56847;51.984;5.088;2024-01-11T07:03:17;42.10;;;19.20;;
69625;SDS011;56847;51.984;5.088;2024-01-11T07:05:44;41.47;;;19.67;;
69625;SDS011;56847;51.984;5.088;2024-01-11T07:08:12;44.70;;;21.80;;
69625;SDS011;56847;51.984;5.088;2024-01-11T07:10:39;50.63;;;21.90;;
69625;SDS011;56847;51.984;5.088;2024-01-11T07:13:06;43.05;;;19.88;;
69625;SDS011;56847;51.984;5.088;2024-01-11T07:15:33;43.45;;;20.70;;
69625;SDS011;56847;51.984;5.088;2024-01-11T07:18:00;41.90;;;18.83;;
69625;SDS011;56847;51.984;5.088;2024-01-11T07:20:30;44.72;;;19.80;;
69625;SDS011;56847;51.984;5.088;2024-01-11T07:22:57;44.30;;;21.40;;
69625;SDS011;56847;51.984;5.088;2024-01-11T07:25:24;40.53;;;19.80;;
69625;SDS011;56847;51.984;5.088;2024-01-11T07:27:51;43.38;;;20.92;;
69625;SDS011;56847;51.984;5.088;2024-01-11T07:30:18;47.93;;;22.63;;
69625;SDS011;56847;51.984;5.088;2024-01-11T07:32:45;47.60;;;21.15;;
69625;SDS011;56847;51.984;5.088;2024-01-11T07:35:13;50.20;;;22.05;;
69625;SDS011;56847;51.984;5.088;2024-01-11T07:37:44;45.08;;;21.25;;
69625;SDS011;56847;51.984;5.088;2024-01-11T07:40:11;48.13;;;21.52;;
69625;SDS011;56847;51.984;5.088;2024-01-11T07:42:40;44.27;;;21.40;;
69625;SDS011;56847;51.984;5.088;2024-01-11T07:45:08;37.50;;;18.40;;
69625;SDS011;56847;51.984;5.088;2024-01-11T07:47:36;49.83;;;20.67;;
69625;SDS011;56847;51.984;5.088;2024-01-11T07:50:08;48.15;;;19.88;;
69625;SDS011;56847;51.984;5.088;2024-01-11T07:52:39;45.00;;;21.70;;
69625;SDS011;56847;51.984;5.088;2024-01-11T07:55:09;45.10;;;20.83;;
69625;SDS011;56847;51.984;5.088;2024-01-11T07:57:39;47.33;;;21.90;;
69625;SDS011;56847;51.984;5.088;2024-01-11T08:00:06;42.92;;;20.52;;
69625;SDS011;56847;51.984;5.088;2024-01-11T08:02:38;46.60;;;21.60;;
69625;SDS011;56847;51.984;5.088;2024-01-11T08:05:06;46.75;;;22.67;;
69625;SDS011;56847;51.984;5.088;2024-01-11T08:07:33;53.23;;;22.73;;
69625;SDS011;56847;51.984;5.088;2024-01-11T08:10:01;44.47;;;21.65;;
69625;SDS011;56847;51.984;5.088;2024-01-11T08:12:30;53.58;;;24.35;;
69625;SDS011;56847;51.984;5.088;2024-01-11T08:15:00;48.42;;;21.63;;
69625;SDS011;56847;51.984;5.088;2024-01-11T08:17:27;55.08;;;22.55;;
69625;SDS011;56847;51.984;5.088;2024-01-11T08:19:55;49.93;;;21.40;;
69625;SDS011;56847;51.984;5.088;2024-01-11T08:22:25;53.10;;;23.17;;
69625;SDS011;56847;51.984;5.088;2024-01-11T08:24:54;46.70;;;22.40;;
69625;SDS011;56847;51.984;5.088;2024-01-11T08:27:24;51.17;;;23.42;;
69625;SDS011;56847;51.984;5.088;2024-01-11T08:29:51;47.75;;;22.48;;
69625;SDS011;56847;51.984;5.088;2024-01-11T08:32:18;52.27;;;23.37;;
69625;SDS011;56847;51.984;5.088;2024-01-11T08:34:57;45.17;;;22.80;;
69625;SDS011;56847;51.984;5.088;2024-01-11T08:37:28;54.80;;;24.63;;
69625;SDS011;56847;51.984;5.088;2024-01-11T08:39:54;49.28;;;22.13;;
69625;SDS011;56847;51.984;5.088;2024-01-11T08:42:21;55.50;;;25.52;;
69625;SDS011;56847;51.984;5.088;2024-01-11T08:44:48;48.80;;;23.17;;
69625;SDS011;56847;51.984;5.088;2024-01-11T08:47:15;52.38;;;23.15;;
69625;SDS011;56847;51.984;5.088;2024-01-11T08:49:42;51.03;;;24.05;;
69625;SDS011;56847;51.984;5.088;2024-01-11T08:52:09;51.13;;;22.95;;
69625;SDS011;56847;51.984;5.088;2024-01-11T08:54:36;48.83;;;22.60;;
69625;SDS011;56847;51.984;5.088;2024-01-11T08:57:03;56.73;;;23.73;;
69625;SDS011;56847;51.984;5.088;2024-01-11T08:59:31;54.17;;;24.15;;
69625;SDS011;56847;51.984;5.088;2024-01-11T09:02:02;54.42;;;25.58;;
69625;SDS011;56847;51.984;5.088;2024-01-11T09:04:41;46.08;;;22.42;;
69625;SDS011;56847;51.984;5.088;2024-01-11T09:07:08;54.38;;;24.75;;
69625;SDS011;56847;51.984;5.088;2024-01-11T09:09:35;47.37;;;24.67;;
69625;SDS011;56847;51.984;5.088;2024-01-11T09:12:15;48.13;;;23.80;;
69625;SDS011;56847;51.984;5.088;2024-01-11T09:14:45;50.38;;;22.73;;
69625;SDS011;56847;51.984;5.088;2024-01-11T09:17:12;52.25;;;23.48;;
69625;SDS011;56847;51.984;5.088;2024-01-11T09:19:39;48.25;;;22.25;;
69625;SDS011;56847;51.984;5.088;2024-01-11T09:22:07;46.47;;;21.00;;
69625;SDS011;56847;51.984;5.088;2024-01-11T09:24:37;38.90;;;19.10;;
69625;SDS011;56847;51.984;5.088;2024-01-11T09:27:05;48.20;;;22.27;;
69625;SDS011;56847;51.984;5.088;2024-01-11T09:29:33;44.70;;;21.25;;
69625;SDS011;56847;51.984;5.088;2024-01-11T09:32:04;49.22;;;21.58;;
69625;SDS011;56847;51.984;5.088;2024-01-11T09:34:34;43.03;;;21.53;;
69625;SDS011;56847;51.984;5.088;2024-01-11T09:37:06;38.00;;;18.75;;
69625;SDS011;56847;51.984;5.088;2024-01-11T09:39:34;41.38;;;21.02;;
69625;SDS011;56847;51.984;5.088;2024-01-11T09:42:06;37.50;;;18.08;;
69625;SDS011;56847;51.984;5.088;2024-01-11T09:44:36;33.53;;;16.77;;
69625;SDS011;56847;51.984;5.088;2024-01-11T09:47:08;40.80;;;18.40;;
69625;SDS011;56847;51.984;5.088;2024-01-11T09:49:42;40.60;;;18.55;;
69625;SDS011;56847;51.984;5.088;2024-01-11T09:52:11;40.10;;;20.10;;
69625;SDS011;56847;51.984;5.088;2024-01-11T09:54:41;42.33;;;19.88;;
69625;SDS011;56847;51.984;5.088;2024-01-11T09:57:09;44.10;;;18.90;;
69625;SDS011;56847;51.984;5.088;2024-01-11T09:59:38;36.57;;;16.70;;
69625;SDS011;56847;51.984;5.088;2024-01-11T10:02:07;37.97;;;18.05;;
69625;SDS011;56847;51.984;5.088;2024-01-11T10:04:37;40.78;;;18.80;;
69625;SDS011;56847;51.984;5.088;2024-01-11T10:07:07;38.20;;;19.17;;
69625;SDS011;56847;51.984;5.088;2024-01-11T10:09:36;43.50;;;19.88;;
69625;SDS011;56847;51.984;5.088;2024-01-11T10:12:03;43.83;;;19.37;;
69625;SDS011;56847;51.984;5.088;2024-01-11T10:14:32;36.83;;;17.38;;
69625;SDS011;56847;51.984;5.088;2024-01-11T10:16:59;41.92;;;19.20;;
69625;SDS011;56847;51.984;5.088;2024-01-11T10:19:29;41.00;;;18.52;;
69625;SDS011;56847;51.984;5.088;2024-01-11T10:21:57;42.97;;;18.35;;
69625;SDS011;56847;51.984;5.088;2024-01-11T10:24:25;39.73;;;18.37;;
69625;SDS011;56847;51.984;5.088;2024-01-11T10:26:58;42.05;;;17.42;;
69625;SDS011;56847;51.984;5.088;2024-01-11T10:29:30;43.30;;;18.55;;
69625;SDS011;56847;51.984;5.088;2024-01-11T10:31:58;40.72;;;16.42;;
69625;SDS011;56847;51.984;5.088;2024-01-11T10:34:25;44.20;;;19.30;;
69625;SDS011;56847;51.984;5.088;2024-01-11T10:36:53;43.40;;;18.93;;
69625;SDS011;56847;51.984;5.088;2024-01-11T10:39:24;37.13;;;17.17;;
69625;SDS011;56847;51.984;5.088;2024-01-11T10:41:59;39.35;;;18.00;;
69625;SDS011;56847;51.984;5.088;2024-01-11T10:44:33;38.50;;;15.77;;
69625;SDS011;56847;51.984;5.088;2024-01-11T10:47:03;34.92;;;16.83;;
69625;SDS011;56847;51.984;5.088;2024-01-11T10:49:34;39.63;;;17.57;;
69625;SDS011;56847;51.984;5.088;2024-01-11T10:52:05;45.13;;;17.45;;
69625;SDS011;56847;51.984;5.088;2024-01-11T10:54:35;41.63;;;17.67;;
69625;SDS011;56847;51.984;5.088;2024-01-11T10:57:04;40.10;;;17.17;;
69625;SDS011;56847;51.984;5.088;2024-01-11T10:59:34;35.38;;;16.88;;
69625;SDS011;56847;51.984;5.088;2024-01-11T11:02:04;38.00;;;17.30;;
69625;SDS011;56847;51.984;5.088;2024-01-11T11:04:34;38.90;;;16.95;;
69625;SDS011;56847;51.984;5.088;2024-01-11T11:07:04;48.33;;;17.48;;
69625;SDS011;56847;51.984;5.088;2024-01-11T11:09:35;37.95;;;17.40;;
69625;SDS011;56847;51.984;5.088;2024-01-11T11:12:05;34.75;;;17.90;;
69625;SDS011;56847;51.984;5.088;2024-01-11T11:14:34;46.23;;;15.80;;
69625;SDS011;56847;51.984;5.088;2024-01-11T11:17:02;35.78;;;16.35;;
69625;SDS011;56847;51.984;5.088;2024-01-11T11:19:30;33.55;;;16.25;;
69625;SDS011;56847;51.984;5.088;2024-01-11T11:21:58;37.58;;;16.75;;
69625;SDS011;56847;51.984;5.088;2024-01-11T11:24:26;33.20;;;15.50;;
69625;SDS011;56847;51.984;5.088;2024-01-11T11:26:53;32.70;;;15.87;;
69625;SDS011;56847;51.984;5.088;2024-01-11T11:29:23;32.72;;;14.80;;
69625;SDS011;56847;51.984;5.088;2024-01-11T11:31:50;31.48;;;15.75;;
69625;SDS011;56847;51.984;5.088;2024-01-11T11:34:20;29.05;;;14.55;;
69625;SDS011;56847;51.984;5.088;2024-01-11T11:37:08;33.08;;;14.02;;
69625;SDS011;56847;51.984;5.088;2024-01-11T11:39:36;27.93;;;13.87;;
69625;SDS011;56847;51.984;5.088;2024-01-11T11:42:03;30.52;;;15.07;;
69625;SDS011;56847;51.984;5.088;2024-01-11T11:44:34;36.40;;;15.52;;
69625;SDS011;56847;51.984;5.088;2024-01-11T11:50:08;35.28;;;14.65;;
69625;SDS011;56847;51.984;5.088;2024-01-11T11:52:38;26.20;;;13.20;;
69625;SDS011;56847;51.984;5.088;2024-01-11T11:55:08;31.42;;;13.18;;
69625;SDS011;56847;51.984;5.088;2024-01-11T11:57:38;28.58;;;13.80;;
69625;SDS011;56847;51.984;5.088;2024-01-11T12:00:09;29.42;;;13.32;;
69625;SDS011;56847;51.984;5.088;2024-01-11T12:02:39;31.02;;;12.93;;
69625;SDS011;56847;51.984;5.088;2024-01-11T12:05:07;28.57;;;13.50;;
69625;SDS011;56847;51.984;5.088;2024-01-11T12:07:34;25.45;;;12.55;;
69625;SDS011;56847;51.984;5.088;2024-01-11T12:10:02;29.52;;;15.23;;
69625;SDS011;56847;51.984;5.088;2024-01-11T12:12:29;29.05;;;13.45;;
69625;SDS011;56847;51.984;5.088;2024-01-11T12:14:57;34.33;;;13.52;;
69625;SDS011;56847;51.984;5.088;2024-01-11T12:17:25;26.07;;;13.13;;
69625;SDS011;56847;51.984;5.088;2024-01-11T12:19:53;30.38;;;14.27;;
69625;SDS011;56847;51.984;5.088;2024-01-11T12:22:23;25.38;;;13.73;;
69625;SDS011;56847;51.984;5.088;2024-01-11T12:24:50;19.67;;;11.35;;
69625;SDS011;56847;51.984;5.088;2024-01-11T12:27:17;27.33;;;14.30;;
69625;SDS011;56847;51.984;5.088;2024-01-11T12:29:45;22.17;;;13.07;;
69625;SDS011;56847;51.984;5.088;2024-01-11T12:32:24;22.60;;;12.48;;
69625;SDS011;56847;51.984;5.088;2024-01-11T12:34:52;25.65;;;12.60;;
69625;SDS011;56847;51.984;5.088;2024-01-11T12:37:20;22.08;;;11.00;;
69625;SDS011;56847;51.984;5.088;2024-01-11T12:39:49;21.00;;;11.05;;
69625;SDS011;56847;51.984;5.088;2024-01-11T12:42:15;22.80;;;12.33;;
69625;SDS011;56847;51.984;5.088;2024-01-11T12:44:43;21.02;;;11.43;;
69625;SDS011;56847;51.984;5.088;2024-01-11T12:47:12;26.73;;;12.68;;
69625;SDS011;56847;51.984;5.088;2024-01-11T12:49:42;23.67;;;13.98;;
69625;SDS011;56847;51.984;5.088;2024-01-11T12:52:16;22.63;;;13.30;;
69625;SDS011;56847;51.984;5.088;2024-01-11T12:54:46;19.57;;;11.60;;
69625;SDS011;56847;51.984;5.088;2024-01-11T12:57:20;20.08;;;11.70;;
69625;SDS011;56847;51.984;5.088;2024-01-11T12:59:47;22.90;;;12.73;;
69625;SDS011;56847;51.984;5.088;2024-01-11T13:02:15;22.50;;;13.65;;
69625;SDS011;56847;51.984;5.088;2024-01-11T13:04:44;20.42;;;11.27;;
69625;SDS011;56847;51.984;5.088;2024-01-11T13:07:12;18.67;;;11.33;;
69625;SDS011;56847;51.984;5.088;2024-01-11T13:09:42;22.42;;;11.23;;
69625;SDS011;56847;51.984;5.088;2024-01-11T13:12:10;21.05;;;12.48;;
69625;SDS011;56847;51.984;5.088;2024-01-11T13:14:37;21.67;;;12.65;;
69625;SDS011;56847;51.984;5.088;2024-01-11T13:17:07;21.02;;;13.20;;
69625;SDS011;56847;51.984;5.088;2024-01-11T13:19:34;23.87;;;13.33;;
69625;SDS011;56847;51.984;5.088;2024-01-11T13:22:02;23.13;;;13.00;;
69625;SDS011;56847;51.984;5.088;2024-01-11T13:24:29;29.83;;;15.90;;
69625;SDS011;56847;51.984;5.088;2024-01-11T13:26:56;29.55;;;13.75;;
69625;SDS011;56847;51.984;5.088;2024-01-11T13:29:23;27.80;;;14.68;;
69625;SDS011;56847;51.984;5.088;2024-01-11T13:31:50;24.90;;;13.07;;
69625;SDS011;56847;51.984;5.088;2024-01-11T13:34:18;20.85;;;12.63;;
69625;SDS011;56847;51.984;5.088;2024-01-11T13:36:45;24.20;;;13.27;;
69625;SDS011;56847;51.984;5.088;2024-01-11T13:39:12;22.15;;;12.32;;
69625;SDS011;56847;51.984;5.088;2024-01-11T13:41:39;27.13;;;13.20;;
69625;SDS011;56847;51.984;5.088;2024-01-11T13:44:10;26.20;;;12.37;;
69625;SDS011;56847;51.984;5.088;2024-01-11T13:46:38;22.50;;;13.05;;
69625;SDS011;56847;51.984;5.088;2024-01-11T13:49:05;20.33;;;12.40;;
69625;SDS011;56847;51.984;5.088;2024-01-11T13:51:34;22.70;;;12.40;;
69625;SDS011;56847;51.984;5.088;2024-01-11T13:54:19;27.58;;;14.00;;
69625;SDS011;56847;51.984;5.088;2024-01-11T13:56:45;24.93;;;12.83;;
69625;SDS011;56847;51.984;5.088;2024-01-11T13:59:13;23.83;;;13.75;;
69625;SDS011;56847;51.984;5.088;2024-01-11T14:01:40;22.50;;;13.07;;
69625;SDS011;56847;51.984;5.088;2024-01-11T14:04:08;22.90;;;12.85;;
69625;SDS011;56847;51.984;5.088;2024-01-11T14:06:35;31.75;;;13.52;;
69625;SDS011;56847;51.984;5.088;2024-01-11T14:09:02;24.77;;;13.87;;
69625;SDS011;56847;51.984;5.088;2024-01-11T14:11:31;23.63;;;12.88;;
69625;SDS011;56847;51.984;5.088;2024-01-11T14:13:58;33.10;;;14.35;;
69625;SDS011;56847;51.984;5.088;2024-01-11T14:16:31;23.90;;;12.57;;
69625;SDS011;56847;51.984;5.088;2024-01-11T14:18:58;25.75;;;13.45;;
69625;SDS011;56847;51.984;5.088;2024-01-11T14:21:26;23.90;;;13.43;;
69625;SDS011;56847;51.984;5.088;2024-01-11T14:23:53;26.23;;;14.60;;
69625;SDS011;56847;51.984;5.088;2024-01-11T14:26:22;30.98;;;14.68;;
69625;SDS011;56847;51.984;5.088;2024-01-11T14:28:48;23.98;;;14.60;;
69625;SDS011;56847;51.984;5.088;2024-01-11T14:31:16;23.58;;;14.55;;
69625;SDS011;56847;51.984;5.088;2024-01-11T14:33:43;26.53;;;14.77;;